createdAt,value
2019-05-03T00:01:04.401Z,10.43
2019-05-03T00:03:35.725Z,9.70
2019-05-03T00:06:07.417Z,9.90
2019-05-03T00:08:38.740Z,9.53
2019-05-03T00:11:10.351Z,10.00
2019-05-03T00:13:41.960Z,10.17
2019-05-03T00:16:15.104Z,10.23
2019-05-03T00:18:46.472Z,9.57
2019-05-03T00:21:17.805Z,10.47
2019-05-03T00:23:49.426Z,9.90
2019-05-03T00:26:22.576Z,11.33
2019-05-03T00:28:54.022Z,10.17
2019-05-03T00:31:25.237Z,10.27
2019-05-03T00:33:58.348Z,10.37
2019-05-03T00:36:32.854Z,10.50
2019-05-03T00:39:12.154Z,10.00
2019-05-03T00:41:43.567Z,10.30
2019-05-03T00:44:14.789Z,9.83
2019-05-03T00:46:46.119Z,10.57
2019-05-03T00:49:17.626Z,11.03
2019-05-03T00:51:48.936Z,9.70
2019-05-03T00:54:22.175Z,10.60
2019-05-03T00:56:53.688Z,11.00
2019-05-03T00:59:25.053Z,10.47
2019-05-03T01:01:56.437Z,10.93
2019-05-03T01:04:28.020Z,10.97
2019-05-03T01:06:59.374Z,11.27
2019-05-03T01:09:31.708Z,10.47
2019-05-03T01:12:03.254Z,10.50
2019-05-03T01:14:36.492Z,10.67
2019-05-03T01:17:07.853Z,11.50
2019-05-03T01:19:39.329Z,11.37
2019-05-03T01:22:11.907Z,11.80
2019-05-03T01:24:43.558Z,11.20
2019-05-03T01:27:14.978Z,11.40
2019-05-03T01:29:46.386Z,11.17
2019-05-03T01:32:17.662Z,11.60
2019-05-03T01:34:48.927Z,11.20
2019-05-03T01:37:22.495Z,11.47
2019-05-03T01:39:53.920Z,11.17
2019-05-03T01:42:25.203Z,11.10
2019-05-03T01:44:56.460Z,11.40
2019-05-03T01:47:29.714Z,11.43
2019-05-03T01:50:05.502Z,11.00
2019-05-03T01:52:38.969Z,11.83
2019-05-03T01:55:15.315Z,10.60
2019-05-03T01:57:43.774Z,11.43
2019-05-03T02:00:17.179Z,12.03
2019-05-03T02:02:59.206Z,11.20
2019-05-03T02:05:44.231Z,11.50
2019-05-03T02:08:15.727Z,10.90
2019-05-03T02:10:47.061Z,11.17
2019-05-03T02:13:18.522Z,10.67
2019-05-03T02:15:50.182Z,11.23
2019-05-03T02:18:22.322Z,11.50
2019-05-03T02:20:53.961Z,11.47
2019-05-03T02:23:25.498Z,11.97
2019-05-03T02:25:59.270Z,11.53
2019-05-03T02:28:30.036Z,11.73
2019-05-03T02:31:03.516Z,11.60
2019-05-03T02:33:34.571Z,11.47
2019-05-03T02:36:05.949Z,12.33
2019-05-03T02:38:37.541Z,11.40
2019-05-03T02:41:08.887Z,11.27
2019-05-03T02:43:45.014Z,11.87
2019-05-03T02:46:17.509Z,12.17
2019-05-03T02:49:06.602Z,11.87
2019-05-03T02:51:37.943Z,12.10
2019-05-03T02:54:09.252Z,12.20
2019-05-03T02:56:40.480Z,12.50
2019-05-03T02:59:11.906Z,12.83
2019-05-03T03:01:46.296Z,12.57
2019-05-03T03:04:17.398Z,12.67
2019-05-03T03:06:50.409Z,12.37
2019-05-03T03:09:21.973Z,11.83
2019-05-03T03:11:55.971Z,11.63
2019-05-03T03:14:29.114Z,12.57
2019-05-03T03:17:01.318Z,12.50
2019-05-03T03:19:35.279Z,13.10
2019-05-03T03:22:10.052Z,11.87
2019-05-03T03:24:45.949Z,13.13
2019-05-03T03:27:22.216Z,13.10
2019-05-03T03:29:57.262Z,13.40
2019-05-03T03:32:37.833Z,13.47
2019-05-03T03:35:12.341Z,12.67
2019-05-03T03:37:45.873Z,13.27
2019-05-03T03:40:16.638Z,13.53
2019-05-03T03:42:49.354Z,13.70
2019-05-03T03:45:20.583Z,12.40
2019-05-03T03:47:52.378Z,13.23
2019-05-03T03:50:25.987Z,13.50
2019-05-03T03:52:59.235Z,13.70
2019-05-03T03:55:30.725Z,13.90
2019-05-03T03:58:02.303Z,15.67
2019-05-03T04:00:36.276Z,18.27
2019-05-03T04:03:08.223Z,18.83
2019-05-03T04:05:40.126Z,18.03
2019-05-03T04:08:11.495Z,25.40
2019-05-03T04:10:46.131Z,27.43
2019-05-03T04:13:18.421Z,30.60
2019-05-03T04:16:05.518Z,30.73
2019-05-03T04:18:39.505Z,34.20
2019-05-03T04:21:10.927Z,35.30
2019-05-03T04:23:43.135Z,34.23
2019-05-03T04:26:16.300Z,34.63
2019-05-03T04:28:47.729Z,28.87
2019-05-03T04:31:19.145Z,28.43
2019-05-03T04:33:51.335Z,30.20
2019-05-03T04:36:22.831Z,29.23
2019-05-03T04:38:56.240Z,23.77
2019-05-03T04:41:27.689Z,21.53
2019-05-03T04:43:58.989Z,20.33
2019-05-03T04:46:30.257Z,22.00
2019-05-03T04:49:01.877Z,19.90
2019-05-03T04:51:35.026Z,19.13
2019-05-03T04:54:20.424Z,18.50
2019-05-03T04:56:51.956Z,17.97
2019-05-03T04:59:25.443Z,15.27
2019-05-03T05:01:56.423Z,13.67
2019-05-03T05:04:27.874Z,13.80
2019-05-03T05:06:59.476Z,13.40
2019-05-03T05:09:30.769Z,12.70
2019-05-03T05:12:02.049Z,11.77
2019-05-03T05:14:35.246Z,11.40
2019-05-03T05:17:08.301Z,10.20
2019-05-03T05:19:54.909Z,9.87
2019-05-03T05:22:30.855Z,9.13
2019-05-03T05:25:06.567Z,8.93
2019-05-03T05:27:48.799Z,6.53
2019-05-03T05:30:14.930Z,6.80
2019-05-03T05:32:46.292Z,5.43
2019-05-03T05:35:17.537Z,5.20
2019-05-03T05:37:49.286Z,5.00
2019-05-03T05:40:21.287Z,4.60
2019-05-03T05:42:54.557Z,5.47
2019-05-03T05:45:26.169Z,4.43
2019-05-03T05:47:59.319Z,4.13
2019-05-03T05:50:38.063Z,4.20
2019-05-03T05:53:09.920Z,4.37
2019-05-03T05:55:46.064Z,3.37
2019-05-03T05:58:19.188Z,3.30
2019-05-03T06:00:52.424Z,3.13
2019-05-03T06:03:25.239Z,2.50
2019-05-03T06:05:58.597Z,2.43
2019-05-03T06:08:37.347Z,2.67
2019-05-03T06:11:11.751Z,2.60
2019-05-03T06:13:59.459Z,2.65
2019-05-03T06:16:49.469Z,2.30
2019-05-03T06:19:28.505Z,2.50
2019-05-03T06:22:05.192Z,2.50
2019-05-03T06:24:38.372Z,3.93
2019-05-03T06:27:17.603Z,5.80
2019-05-03T06:29:50.528Z,6.50
2019-05-03T06:32:27.194Z,7.60
2019-05-03T06:34:59.617Z,7.37
2019-05-03T06:37:32.997Z,7.00
2019-05-03T06:40:07.497Z,6.23
2019-05-03T06:42:51.229Z,7.07
2019-05-03T06:45:12.134Z,6.03
2019-05-03T06:47:46.032Z,5.10
2019-05-03T06:50:19.512Z,7.40
2019-05-03T06:52:49.910Z,7.33
2019-05-03T06:55:21.240Z,6.07
2019-05-03T06:57:54.597Z,5.70
2019-05-03T07:00:35.090Z,3.63
2019-05-03T07:03:08.517Z,3.17
2019-05-03T07:05:58.389Z,3.83
2019-05-03T07:08:46.906Z,3.37
2019-05-03T07:11:16.724Z,2.90
2019-05-03T07:13:48.150Z,2.90
2019-05-03T07:16:19.552Z,2.33
2019-05-03T07:18:51.046Z,2.40
2019-05-03T07:21:22.408Z,44.00
2019-05-03T07:23:55.177Z,3.20
2019-05-03T07:26:26.606Z,2.73
2019-05-03T07:28:58.158Z,11.33
2019-05-03T07:31:29.509Z,3.63
2019-05-03T07:34:00.717Z,5.40
2019-05-03T07:36:32.490Z,5.30
2019-05-03T07:39:06.119Z,5.07
2019-05-03T07:41:37.435Z,5.03
2019-05-03T07:44:08.647Z,5.50
2019-05-03T07:46:40.052Z,3.70
2019-05-03T07:49:11.545Z,5.57
2019-05-03T07:51:44.766Z,10.30
2019-05-03T07:54:16.441Z,7.00
2019-05-03T07:56:54.916Z,6.07
2019-05-03T07:59:26.374Z,4.83
2019-05-03T08:01:58.094Z,3.90
2019-05-03T08:04:29.388Z,7.90
2019-05-03T08:07:00.628Z,3.27
2019-05-03T08:09:32.141Z,4.10
2019-05-03T08:12:05.112Z,4.27
2019-05-03T08:14:36.672Z,4.17
2019-05-03T08:17:08.090Z,5.30
2019-05-03T08:19:39.513Z,4.40
2019-05-03T08:22:11.337Z,5.87
2019-05-03T08:24:44.551Z,8.63
2019-05-03T08:27:15.758Z,5.33
2019-05-03T08:29:46.970Z,7.53
2019-05-03T08:32:24.576Z,6.20
2019-05-03T08:34:58.092Z,7.00
2019-05-03T08:37:31.846Z,6.90
2019-05-03T08:40:06.525Z,11.20
2019-05-03T08:42:37.821Z,11.27
2019-05-03T08:45:09.226Z,4.93
2019-05-03T08:47:40.601Z,4.17
2019-05-03T08:50:15.780Z,13.40
2019-05-03T08:52:45.520Z,4.53
2019-05-03T08:55:18.149Z,6.20
2019-05-03T08:57:49.439Z,5.90
2019-05-03T09:00:24.799Z,5.83
2019-05-03T09:02:55.878Z,3.80
2019-05-03T09:05:27.486Z,3.27
2019-05-03T09:07:58.929Z,7.33
2019-05-03T09:10:32.550Z,3.60
2019-05-03T09:13:12.009Z,8.27
2019-05-03T09:15:45.417Z,10.97
2019-05-03T09:18:17.647Z,7.60
2019-05-03T09:20:49.241Z,8.87
2019-05-03T09:23:23.251Z,5.20
2019-05-03T09:25:54.760Z,4.50
2019-05-03T09:28:29.071Z,6.23
2019-05-03T09:30:59.680Z,5.37
2019-05-03T09:33:30.981Z,3.73
2019-05-03T09:36:02.371Z,3.70
2019-05-03T09:38:34.997Z,4.27
2019-05-03T09:41:06.876Z,3.37
2019-05-03T09:43:38.364Z,3.10
2019-05-03T09:46:09.663Z,2.20
2019-05-03T09:48:41.193Z,2.50
2019-05-03T09:51:14.661Z,3.20
2019-05-03T09:53:55.374Z,3.23
2019-05-03T09:56:54.995Z,7.67
2019-05-03T09:59:18.512Z,2.67
2019-05-03T10:01:50.213Z,2.30
2019-05-03T10:04:21.434Z,1.93
2019-05-03T10:06:54.839Z,2.10
2019-05-03T10:09:27.036Z,2.70
2019-05-03T10:11:59.065Z,2.70
2019-05-03T10:14:30.277Z,2.13
2019-05-03T10:17:10.022Z,2.70
2019-05-03T10:19:41.511Z,1.97
2019-05-03T10:22:15.034Z,2.87
2019-05-03T10:24:46.762Z,2.40
2019-05-03T10:27:18.087Z,4.07
2019-05-03T10:29:49.664Z,3.17
2019-05-03T10:32:28.599Z,2.00
2019-05-03T10:35:01.916Z,2.20
2019-05-03T10:37:35.665Z,2.17
2019-05-03T10:40:08.299Z,2.00
2019-05-03T10:42:40.286Z,1.90
2019-05-03T10:45:11.676Z,2.73
2019-05-03T10:47:43.085Z,1.70
2019-05-03T10:50:15.573Z,2.30
2019-05-03T10:52:51.881Z,2.00
2019-05-03T10:55:25.061Z,2.30
2019-05-03T10:58:15.993Z,1.80
2019-05-03T11:00:52.832Z,1.95
2019-05-03T11:03:22.154Z,2.00
2019-05-03T11:05:54.837Z,1.90
2019-05-03T11:08:26.691Z,1.90
2019-05-03T11:10:57.922Z,1.53
2019-05-03T11:13:29.185Z,1.70
2019-05-03T11:16:00.611Z,2.27
2019-05-03T11:18:31.955Z,1.67
2019-05-03T11:21:05.152Z,1.40
2019-05-03T11:23:36.467Z,1.77
2019-05-03T11:26:07.760Z,1.93
2019-05-03T11:28:39.013Z,1.57
2019-05-03T11:31:28.885Z,1.20
2019-05-03T11:34:02.096Z,1.52
2019-05-03T11:36:45.428Z,1.47
2019-05-03T11:39:16.950Z,1.10
2019-05-03T11:41:50.166Z,1.80
2019-05-03T11:44:39.831Z,1.50
2019-05-03T11:47:11.136Z,1.60
2019-05-03T11:49:42.669Z,1.50
2019-05-03T11:52:15.929Z,1.20
2019-05-03T11:54:47.654Z,1.50
2019-05-03T11:57:26.871Z,1.73
2019-05-03T11:59:58.176Z,1.77
2019-05-03T12:02:32.658Z,1.40
2019-05-03T12:05:07.384Z,1.87
2019-05-03T12:07:40.109Z,2.23
2019-05-03T12:10:20.638Z,19.73
2019-05-03T12:12:47.513Z,1.97
2019-05-03T12:15:19.325Z,2.57
2019-05-03T12:17:58.910Z,2.23
2019-05-03T12:20:30.378Z,1.97
2019-05-03T12:23:02.603Z,2.10
2019-05-03T12:25:36.119Z,1.90
2019-05-03T12:28:08.144Z,1.83
2019-05-03T12:30:39.872Z,3.67
2019-05-03T12:33:11.466Z,2.37
2019-05-03T12:35:42.790Z,30.80
2019-05-03T12:38:16.519Z,5.67
2019-05-03T12:40:47.273Z,2.40
2019-05-03T12:43:18.579Z,30.83
2019-05-03T12:45:49.944Z,6.63
2019-05-03T12:48:21.273Z,8.63
2019-05-03T12:50:54.074Z,11.33
2019-05-03T12:53:25.669Z,9.50
2019-05-03T12:55:57.216Z,2.20
2019-05-03T12:58:48.165Z,1.20
2019-05-03T13:01:25.096Z,1.85
2019-05-03T13:03:59.227Z,1.80
2019-05-03T13:06:34.543Z,1.90
2019-05-03T13:09:06.741Z,9.37
2019-05-03T13:11:51.991Z,3.30
2019-05-03T13:14:15.587Z,7.67
2019-05-03T13:16:46.823Z,5.33
2019-05-03T13:19:18.084Z,4.63
2019-05-03T13:21:49.493Z,4.07
2019-05-03T13:24:23.124Z,9.97
2019-05-03T13:26:54.255Z,11.00
2019-05-03T13:29:25.715Z,63.37
2019-05-03T13:32:01.666Z,11.57
2019-05-03T13:34:31.242Z,10.23
2019-05-03T13:37:02.459Z,25.77
2019-05-03T13:39:35.733Z,23.87
2019-05-03T13:42:07.104Z,27.90
2019-05-03T13:44:38.305Z,48.43
2019-05-03T13:47:09.551Z,53.87
2019-05-03T13:49:40.968Z,50.37
2019-05-03T13:52:14.429Z,5.10
2019-05-03T13:54:47.743Z,2.80
2019-05-03T13:57:18.660Z,8.30
2019-05-03T13:59:49.990Z,2.33
2019-05-03T14:02:21.268Z,2.33
2019-05-03T14:04:52.995Z,4.00
2019-05-03T14:07:24.404Z,4.43
2019-05-03T14:09:55.808Z,2.20
2019-05-03T14:12:27.220Z,2.50
2019-05-03T14:14:58.472Z,2.30
2019-05-03T14:17:29.720Z,2.20
2019-05-03T14:20:14.787Z,2.23
2019-05-03T14:22:47.999Z,2.90
2019-05-03T14:25:19.293Z,1.43
2019-05-03T14:27:50.744Z,1.73
2019-05-03T14:30:22.287Z,1.87
2019-05-03T14:32:55.596Z,1.53
2019-05-03T14:35:26.888Z,1.57
2019-05-03T14:37:58.239Z,1.60
2019-05-03T14:40:29.610Z,1.53
2019-05-03T14:43:00.897Z,1.50
2019-05-03T14:45:32.472Z,1.30
2019-05-03T14:48:06.155Z,1.30
2019-05-03T14:50:37.521Z,1.40
2019-05-03T14:53:09.070Z,1.43
2019-05-03T14:55:42.277Z,1.50
2019-05-03T14:58:25.893Z,1.80
2019-05-03T15:01:05.867Z,1.40
2019-05-03T15:03:37.188Z,1.80
2019-05-03T15:06:08.384Z,1.80
2019-05-03T15:08:39.738Z,1.90
2019-05-03T15:11:11.040Z,2.17
2019-05-03T15:13:42.328Z,1.43
2019-05-03T15:16:14.413Z,2.20
2019-05-03T15:18:45.845Z,2.80
2019-05-03T15:21:17.180Z,1.70
2019-05-03T15:23:48.548Z,1.60
2019-05-03T15:26:19.806Z,12.60
2019-05-03T15:28:51.609Z,1.80
2019-05-03T15:31:24.540Z,1.60
2019-05-03T15:33:56.038Z,2.17
2019-05-03T15:36:27.355Z,1.73
2019-05-03T15:38:58.705Z,1.77
2019-05-03T15:41:31.836Z,2.23
2019-05-03T15:44:22.699Z,2.20
2019-05-03T15:49:32.645Z,1.10
2019-05-03T15:52:04.702Z,1.67
2019-05-03T15:54:36.134Z,1.97
2019-05-03T15:57:07.403Z,1.80
2019-05-03T15:59:38.699Z,1.53
2019-05-03T16:02:10.369Z,1.40
2019-05-03T16:04:41.721Z,1.80
2019-05-03T16:07:14.412Z,1.70
2019-05-03T16:09:46.173Z,1.43
2019-05-03T16:12:17.423Z,1.30
2019-05-03T16:14:48.890Z,1.73
2019-05-03T16:17:40.057Z,1.17
2019-05-03T16:20:14.355Z,3.20
2019-05-03T16:22:46.649Z,2.17
2019-05-03T16:25:18.593Z,1.70
2019-05-03T16:28:08.469Z,2.53
2019-05-03T16:30:41.903Z,6.60
2019-05-03T16:33:26.561Z,2.90
2019-05-03T16:35:46.819Z,1.40
2019-05-03T16:38:18.257Z,2.13
2019-05-03T16:40:49.674Z,2.50
2019-05-03T16:43:21.072Z,0.90
2019-05-03T16:45:52.546Z,1.30
2019-05-03T16:48:24.691Z,1.20
2019-05-03T16:50:56.076Z,1.10
2019-05-03T16:53:27.440Z,1.47
2019-05-03T16:55:59.173Z,1.27
2019-05-03T16:58:30.520Z,1.20
2019-05-03T17:01:01.992Z,1.30
2019-05-03T17:03:41.479Z,1.20
2019-05-03T17:06:18.424Z,1.20
2019-05-03T17:08:57.653Z,1.60
2019-05-03T17:11:29.079Z,1.40
2019-05-03T17:14:00.394Z,1.30
2019-05-03T17:16:34.433Z,1.37
2019-05-03T17:19:06.017Z,1.43
2019-05-03T17:21:37.715Z,1.37
2019-05-03T17:24:09.252Z,1.60
2019-05-03T17:26:40.560Z,2.63
2019-05-03T17:29:11.982Z,3.30
2019-05-03T17:31:44.482Z,4.23
2019-05-03T17:34:15.832Z,6.90
2019-05-03T17:36:47.245Z,8.77
2019-05-03T17:39:20.551Z,11.93
2019-05-03T17:42:10.555Z,28.83
2019-05-03T17:44:46.600Z,82.62
2019-05-03T17:47:17.983Z,56.60
2019-05-03T17:49:49.343Z,31.70
2019-05-03T17:52:40.419Z,17.50
2019-05-03T17:55:15.308Z,13.00
2019-05-03T17:57:57.507Z,14.30
2019-05-03T18:00:45.802Z,13.87
2019-05-03T18:03:18.188Z,13.63
2019-05-03T18:05:51.318Z,10.83
2019-05-03T18:08:30.416Z,9.00
2019-05-03T18:11:07.197Z,8.90
2019-05-03T18:13:38.507Z,28.20
2019-05-03T18:16:09.742Z,16.83
2019-05-03T18:18:41.011Z,7.17
2019-05-03T18:21:12.341Z,5.30
2019-05-03T18:23:45.417Z,4.70
2019-05-03T18:26:16.742Z,3.37
2019-05-03T18:28:48.000Z,3.80
2019-05-03T18:31:19.671Z,3.60
2019-05-03T18:33:50.918Z,3.57
2019-05-03T18:36:22.164Z,4.10
2019-05-03T18:38:55.255Z,3.37
2019-05-03T18:41:27.015Z,3.30
2019-05-03T18:44:06.238Z,3.17
2019-05-03T18:46:39.704Z,4.00
2019-05-03T18:49:11.213Z,4.03
2019-05-03T18:51:44.619Z,5.73
2019-05-03T18:54:15.998Z,5.07
2019-05-03T18:56:47.292Z,4.50
2019-05-03T18:59:18.676Z,6.90
2019-05-03T19:01:50.048Z,8.03
2019-05-03T19:04:34.700Z,7.90
2019-05-03T19:07:05.278Z,8.23
2019-05-03T19:09:41.592Z,7.77
2019-05-03T19:12:15.765Z,7.47
2019-05-03T19:14:47.091Z,6.60
2019-05-03T19:17:36.169Z,7.00
2019-05-03T19:20:10.813Z,6.53
2019-05-03T19:22:42.069Z,5.87
2019-05-03T19:25:14.862Z,6.50
2019-05-03T19:27:46.446Z,6.33
2019-05-03T19:30:18.321Z,5.83
2019-05-03T19:32:49.879Z,5.77
2019-05-03T19:35:22.106Z,5.00
2019-05-03T19:37:55.333Z,5.73
2019-05-03T19:40:26.507Z,7.10
2019-05-03T19:42:57.929Z,6.83
2019-05-03T19:45:29.390Z,7.13
2019-05-03T19:48:00.785Z,7.87
2019-05-03T19:50:35.306Z,8.07
2019-05-03T19:53:21.212Z,7.77
2019-05-03T19:55:52.477Z,6.43
2019-05-03T19:58:24.877Z,6.67
2019-05-03T20:00:58.407Z,6.53
2019-05-03T20:03:45.496Z,5.80
2019-05-03T20:06:34.573Z,4.80
2019-05-03T20:09:10.914Z,5.30
2019-05-03T20:11:42.453Z,5.17
2019-05-03T20:14:14.855Z,4.70
2019-05-03T20:16:46.206Z,4.90
2019-05-03T20:19:21.036Z,4.70
2019-05-03T20:21:50.800Z,4.87
2019-05-03T20:24:22.094Z,5.00
2019-05-03T20:26:53.426Z,4.50
2019-05-03T20:29:25.146Z,5.60
2019-05-03T20:31:56.763Z,6.30
2019-05-03T20:34:28.163Z,7.20
2019-05-03T20:36:59.470Z,6.80
2019-05-03T20:39:31.100Z,7.33
2019-05-03T20:42:04.516Z,7.50
2019-05-03T20:44:38.649Z,8.27
2019-05-03T20:47:15.733Z,9.53
2019-05-03T20:49:49.022Z,10.50
2019-05-03T20:52:21.742Z,10.33
2019-05-03T20:54:55.089Z,12.37
2019-05-03T20:57:26.232Z,12.97
2019-05-03T20:59:57.717Z,14.27
2019-05-03T21:02:29.229Z,14.63
2019-05-03T21:05:00.446Z,16.07
2019-05-03T21:07:31.833Z,15.43
2019-05-03T21:10:06.126Z,16.83
2019-05-03T21:12:37.842Z,16.83
2019-05-03T21:15:16.936Z,17.10
2019-05-03T21:18:06.578Z,16.70
2019-05-03T21:20:39.686Z,17.23
2019-05-03T21:23:14.658Z,17.30
2019-05-03T21:26:12.316Z,16.30
2019-05-03T21:28:38.976Z,17.17
2019-05-03T21:31:10.548Z,16.73
2019-05-03T21:33:41.757Z,17.23
2019-05-03T21:36:14.942Z,16.90
2019-05-03T21:38:46.280Z,17.57
2019-05-03T21:41:17.600Z,17.23
2019-05-03T21:43:48.810Z,17.70
2019-05-03T21:46:27.721Z,17.23
2019-05-03T21:49:04.496Z,18.93
2019-05-03T21:51:36.066Z,21.40
2019-05-03T21:54:07.371Z,18.87
2019-05-03T21:56:38.747Z,20.47
2019-05-03T21:59:10.147Z,21.07
2019-05-03T22:01:45.423Z,21.43
2019-05-03T22:04:16.473Z,21.80
2019-05-03T22:06:47.672Z,21.57
2019-05-03T22:09:18.931Z,23.27
2019-05-03T22:11:52.157Z,21.37
2019-05-03T22:14:25.270Z,22.90
2019-05-03T22:17:14.994Z,20.87
2019-05-03T22:22:36.474Z,21.63
2019-05-03T22:25:09.233Z,21.63
2019-05-03T22:27:42.362Z,22.77
2019-05-03T22:30:13.680Z,22.07
2019-05-03T22:32:44.899Z,25.27
2019-05-03T22:35:16.213Z,22.83
2019-05-03T22:37:47.447Z,22.60
2019-05-03T22:40:18.654Z,23.90
2019-05-03T22:42:49.994Z,24.50
2019-05-03T22:45:21.205Z,24.63
2019-05-03T22:47:52.416Z,24.40
2019-05-03T22:50:25.457Z,24.57
2019-05-03T22:52:56.848Z,25.00
2019-05-03T22:55:28.085Z,23.43
2019-05-03T22:57:59.315Z,24.90
2019-05-03T23:00:30.525Z,25.20
2019-05-03T23:03:01.729Z,27.33
2019-05-03T23:05:34.720Z,26.03
2019-05-03T23:08:06.083Z,24.97
2019-05-03T23:10:37.299Z,25.90
2019-05-03T23:13:08.583Z,25.47
2019-05-03T23:15:39.894Z,24.77
2019-05-03T23:18:11.094Z,24.87
2019-05-03T23:20:56.145Z,26.53
2019-05-03T23:23:45.616Z,24.33
2019-05-03T23:26:17.002Z,24.40
2019-05-03T23:28:49.317Z,24.33
2019-05-03T23:31:20.535Z,26.23
2019-05-03T23:33:51.772Z,24.83
2019-05-03T23:36:32.864Z,25.10
2019-05-03T23:38:56.180Z,24.53
2019-05-03T23:41:27.408Z,24.80
2019-05-03T23:43:58.701Z,24.93
2019-05-03T23:46:31.820Z,23.23
2019-05-03T23:49:03.167Z,23.70
2019-05-03T23:51:50.903Z,22.63
2019-05-03T23:54:24.717Z,21.93
2019-05-03T23:56:56.127Z,22.43
2019-05-03T23:59:27.366Z,22.73
